Detall de PIREP

Printer-friendly versionPDF version

[2012/05/23 09:57:00]
Flight IATA:CT1005
Pilot Number:011
Company ICAO:CAT
Aircraft Type:F28/A
PAX:85
Departing Airport: EYKA
Destination Airport: EPGD
Alternate Airport:EPPO
Online: VATSIM
Route:AKUMA L749 GILUT M994 RUSNE R801 GOMED M994 KMI
Flight Level:F260
No Slew and time accel
No pause
Crash detect
Detect pilot in Cockpit between each 30 and 45 minutes
09:57 Zero fuel Weight: 59656 Lbs, Fuel Weight: 9576 Lbs
09:57 VATSIM:EYKA 230950Z 02011KT 340V070 9999 FEW035 SCT100 22/14 Q1020
09:57 VATSIM:EPGD 230930Z 04012KT 360V080 CAVOK 19/14 Q1022
10:01 Parking Brakes off
10:11 Take-off
10:11 Take off Weight: 68796 Lbs
10:11 Wind: 015º @ 011 Knots Heading: 082º
10:11 POS N54º 57´ 49´´ E024º 04´ 59´´
10:11 Gear Up: 149 Knots
10:11 Flaps:3 at 149 Knots
10:12 Flaps:2 at 199 Knots
10:12 Flaps:1 at 206 Knots
10:12 Flaps:0 at 213 Knots
10:26 Wind:038º@046 Knots Heading: 293º Ground Speed: 414 Knots Altitude 25951 ft
10:26 TOC
10:26 Fuel Weight: 7194 Lb
10:36 TOD
10:36 Fuel Weight: 6376 Lb
10:41 Wind:045º@039 Knots Heading: 230º Ground Speed: 413 Knots Altitude 15410 ft
10:54 Flaps:1 at 244 Knots
10:54 Flaps:2 at 230 Knots
10:55 Flaps:3 at 206 Knots
10:56 Wind:040º@024 Knots Heading: 087º Ground Speed: 178 Knots Altitude 3992 ft
10:58 Flaps:4 at 176 Knots
10:58 Gear Down: 176 Knots
10:58 Flaps:5 at 163 Knots
11:00 TouchDown:Rate -126 ft/min Speed: 108 Knots
11:01 VATSIM:EPGD 231030Z 04014KT CAVOK 20/14 Q1022
11:01 Land
11:01 Wind:037º@014 Knots
11:01 Heading: 114º
11:01 Flight Duration: 00:50
11:01 Landing Weight: 64590 Lbs
11:01 POS N54º 22´ 34´´ E018º 28´ 17´´
11:08 Parking brakes on
11:08 Block to Block Duration: 01:07
11:08 Final Fuel: 4671 Lbls
11:08 Spent Fuel: 4905 Lbls
11:08 Flight Length: 127 NM
11:08 TOD Land Length: 71 NM

Exportar CSV

Powered by Drupal - Modified by Danger4k